首页
METAR-TAF:

METAR-TAF

机场 :

聖保羅, 圣保罗州, 巴西

孔戈尼亚斯/圣保罗机场

纬度: 23-37S, 经度: 046-39W, 海拔: 803米

当前天气观测

该预报发布于1小时和7分钟前的14:00 UTC
风速6节,风向
温度 26°C
湿度 58%
气压 1019 hPa
能见度10公里或以上
1500米以下无云,无积雨云

METAR: SBSP 201400Z 10006KT CAVOK 26/17 Q1019

时间: 13:07 (15:07 UTC)

预报

该预报发布于5小时和50分钟前的09:17 UTC
预报有效从20日的 12点(UTC)到 21日的 12点(UTC)
风速5节,风向东转东南
能見度: 8000
多云层高于1500英尺
成为
从 20日的 13点(UTC)到 20日的 15点(UTC)
风速10节,风向南转南东
能见度10公里或以上
散云层高于2000英尺
几率 30%
从 20日的 17点(UTC)到 20日的 22点(UTC)
能見度: 7000
多云层高于1300英尺
少量云层高于4000英尺, 积雨云.
雷暴, 雨
成为
从 20日的 21点(UTC)到 20日的 23点(UTC)
多云层高于1100英尺
成为
从 21日的 08点(UTC)到 21日的 10点(UTC)
风速5节,风向
散云层高于1500英尺

TAF: SBSP 200917Z 2012/2112 12005KT 8000 BKN015 TX27/2017Z TN21/2108Z BECMG 2013/2015 16010KT 9999 SCT020 PROB30 2017/2022 7000 TSRA BKN013 FEW040CB BECMG 2021/2023 BKN011 BECMG 2108/2110 09005KT SCT015 RMK PGN

超过4000个机场的气象观测和天气预报(METAR&TAF报告)。

可查询的气象台以黄色和红色小点在地图上表示。

将鼠标移到小点上方,可查看气象台名称。

然后点击查看天气观测和预报。

如需切换地图:点击带黑十字的绿色按钮放大地图;点击带横线的绿色按钮缩小地图;或者点击绿色箭头查看邻近地区的地图。


METAR-TAF: